sensor_id;sensor_type;location;lat;lon;timestamp;P1;durP1;ratioP1;P2;durP2;ratioP2
80975;SDS011;70437;49.466;11.002;2024-03-06T00:02:03;13.30;;;6.57;;
80975;SDS011;70437;49.466;11.002;2024-03-06T00:04:34;15.95;;;7.20;;
80975;SDS011;70437;49.466;11.002;2024-03-06T00:07:06;16.58;;;7.85;;
80975;SDS011;70437;49.466;11.002;2024-03-06T00:09:34;14.63;;;6.55;;
80975;SDS011;70437;49.466;11.002;2024-03-06T00:12:04;14.13;;;7.05;;
80975;SDS011;70437;49.466;11.002;2024-03-06T00:14:34;15.40;;;7.10;;
80975;SDS011;70437;49.466;11.002;2024-03-06T00:17:05;12.25;;;6.45;;
80975;SDS011;70437;49.466;11.002;2024-03-06T00:19:37;14.75;;;7.43;;
80975;SDS011;70437;49.466;11.002;2024-03-06T00:22:09;16.42;;;7.80;;
80975;SDS011;70437;49.466;11.002;2024-03-06T00:24:38;14.23;;;7.15;;
80975;SDS011;70437;49.466;11.002;2024-03-06T00:27:07;14.50;;;7.25;;
80975;SDS011;70437;49.466;11.002;2024-03-06T00:29:39;19.42;;;7.00;;
80975;SDS011;70437;49.466;11.002;2024-03-06T00:32:08;14.05;;;6.97;;
80975;SDS011;70437;49.466;11.002;2024-03-06T00:34:41;16.88;;;7.90;;
80975;SDS011;70437;49.466;11.002;2024-03-06T00:37:13;14.80;;;7.05;;
80975;SDS011;70437;49.466;11.002;2024-03-06T00:39:42;14.85;;;6.40;;
80975;SDS011;70437;49.466;11.002;2024-03-06T00:42:12;15.32;;;7.38;;
80975;SDS011;70437;49.466;11.002;2024-03-06T00:44:42;13.30;;;6.50;;
80975;SDS011;70437;49.466;11.002;2024-03-06T00:47:12;14.63;;;7.05;;
80975;SDS011;70437;49.466;11.002;2024-03-06T00:49:43;15.68;;;7.15;;
80975;SDS011;70437;49.466;11.002;2024-03-06T00:52:13;14.23;;;7.07;;
80975;SDS011;70437;49.466;11.002;2024-03-06T00:54:43;16.65;;;7.75;;
80975;SDS011;70437;49.466;11.002;2024-03-06T00:57:13;16.27;;;7.80;;
80975;SDS011;70437;49.466;11.002;2024-03-06T00:59:44;15.80;;;8.35;;
80975;SDS011;70437;49.466;11.002;2024-03-06T01:02:14;16.08;;;8.23;;
80975;SDS011;70437;49.466;11.002;2024-03-06T01:04:48;13.45;;;7.13;;
80975;SDS011;70437;49.466;11.002;2024-03-06T01:07:19;16.00;;;8.00;;
80975;SDS011;70437;49.466;11.002;2024-03-06T01:09:53;16.98;;;7.82;;
80975;SDS011;70437;49.466;11.002;2024-03-06T01:12:26;14.65;;;6.63;;
80975;SDS011;70437;49.466;11.002;2024-03-06T01:17:29;15.60;;;6.85;;
80975;SDS011;70437;49.466;11.002;2024-03-06T01:20:01;13.95;;;6.82;;
80975;SDS011;70437;49.466;11.002;2024-03-06T01:22:31;16.77;;;7.95;;
80975;SDS011;70437;49.466;11.002;2024-03-06T01:25:03;14.73;;;7.15;;
80975;SDS011;70437;49.466;11.002;2024-03-06T01:27:34;16.02;;;7.75;;
80975;SDS011;70437;49.466;11.002;2024-03-06T01:30:03;16.50;;;7.68;;
80975;SDS011;70437;49.466;11.002;2024-03-06T01:32:33;17.25;;;7.80;;
80975;SDS011;70437;49.466;11.002;2024-03-06T01:35:05;16.75;;;7.32;;
80975;SDS011;70437;49.466;11.002;2024-03-06T01:37:35;17.98;;;8.80;;
80975;SDS011;70437;49.466;11.002;2024-03-06T01:40:06;16.13;;;7.40;;
80975;SDS011;70437;49.466;11.002;2024-03-06T01:42:38;15.18;;;7.85;;
80975;SDS011;70437;49.466;11.002;2024-03-06T01:45:08;18.52;;;7.85;;
80975;SDS011;70437;49.466;11.002;2024-03-06T01:47:38;15.32;;;7.90;;
80975;SDS011;70437;49.466;11.002;2024-03-06T01:50:13;16.33;;;7.93;;
80975;SDS011;70437;49.466;11.002;2024-03-06T01:52:44;15.82;;;8.10;;
80975;SDS011;70437;49.466;11.002;2024-03-06T01:55:16;20.10;;;8.38;;
80975;SDS011;70437;49.466;11.002;2024-03-06T01:57:49;15.45;;;7.93;;
80975;SDS011;70437;49.466;11.002;2024-03-06T02:00:20;17.83;;;8.02;;
80975;SDS011;70437;49.466;11.002;2024-03-06T02:02:50;19.27;;;8.10;;
80975;SDS011;70437;49.466;11.002;2024-03-06T02:05:23;16.52;;;8.15;;
80975;SDS011;70437;49.466;11.002;2024-03-06T02:07:52;19.52;;;8.43;;
80975;SDS011;70437;49.466;11.002;2024-03-06T02:10:22;18.10;;;8.55;;
80975;SDS011;70437;49.466;11.002;2024-03-06T02:12:58;15.82;;;8.07;;
80975;SDS011;70437;49.466;11.002;2024-03-06T02:15:27;19.10;;;8.65;;
80975;SDS011;70437;49.466;11.002;2024-03-06T02:18:04;18.25;;;8.32;;
80975;SDS011;70437;49.466;11.002;2024-03-06T02:20:37;19.70;;;9.18;;
80975;SDS011;70437;49.466;11.002;2024-03-06T02:23:08;18.58;;;8.93;;
80975;SDS011;70437;49.466;11.002;2024-03-06T02:25:37;15.48;;;8.35;;
80975;SDS011;70437;49.466;11.002;2024-03-06T02:28:07;18.55;;;8.50;;
80975;SDS011;70437;49.466;11.002;2024-03-06T02:30:36;15.23;;;8.35;;
80975;SDS011;70437;49.466;11.002;2024-03-06T02:33:08;17.58;;;8.95;;
80975;SDS011;70437;49.466;11.002;2024-03-06T02:35:39;20.30;;;9.07;;
80975;SDS011;70437;49.466;11.002;2024-03-06T02:38:12;22.52;;;9.20;;
80975;SDS011;70437;49.466;11.002;2024-03-06T02:40:43;21.40;;;8.95;;
80975;SDS011;70437;49.466;11.002;2024-03-06T02:43:12;24.60;;;9.85;;
80975;SDS011;70437;49.466;11.002;2024-03-06T02:45:44;19.73;;;8.70;;
80975;SDS011;70437;49.466;11.002;2024-03-06T02:48:13;18.92;;;9.40;;
80975;SDS011;70437;49.466;11.002;2024-03-06T02:50:44;23.77;;;9.93;;
80975;SDS011;70437;49.466;11.002;2024-03-06T02:53:13;18.10;;;8.60;;
80975;SDS011;70437;49.466;11.002;2024-03-06T02:55:45;20.90;;;8.98;;
80975;SDS011;70437;49.466;11.002;2024-03-06T02:58:14;18.75;;;8.82;;
80975;SDS011;70437;49.466;11.002;2024-03-06T03:00:45;20.75;;;9.15;;
80975;SDS011;70437;49.466;11.002;2024-03-06T03:03:15;18.80;;;8.98;;
80975;SDS011;70437;49.466;11.002;2024-03-06T03:05:50;18.85;;;8.68;;
80975;SDS011;70437;49.466;11.002;2024-03-06T03:08:21;20.58;;;9.27;;
80975;SDS011;70437;49.466;11.002;2024-03-06T03:10:50;18.70;;;8.85;;
80975;SDS011;70437;49.466;11.002;2024-03-06T03:13:19;19.00;;;9.38;;
80975;SDS011;70437;49.466;11.002;2024-03-06T03:15:48;18.77;;;9.25;;
80975;SDS011;70437;49.466;11.002;2024-03-06T03:18:19;23.40;;;9.85;;
80975;SDS011;70437;49.466;11.002;2024-03-06T03:20:58;22.15;;;10.02;;
80975;SDS011;70437;49.466;11.002;2024-03-06T03:23:31;22.58;;;10.77;;
80975;SDS011;70437;49.466;11.002;2024-03-06T03:26:00;24.00;;;9.45;;
80975;SDS011;70437;49.466;11.002;2024-03-06T03:28:31;21.08;;;9.65;;
80975;SDS011;70437;49.466;11.002;2024-03-06T03:31:00;22.63;;;9.80;;
80975;SDS011;70437;49.466;11.002;2024-03-06T03:33:30;22.88;;;10.70;;
80975;SDS011;70437;49.466;11.002;2024-03-06T03:36:01;24.65;;;10.38;;
80975;SDS011;70437;49.466;11.002;2024-03-06T03:38:33;23.88;;;10.25;;
80975;SDS011;70437;49.466;11.002;2024-03-06T03:41:06;25.63;;;11.10;;
80975;SDS011;70437;49.466;11.002;2024-03-06T03:43:36;25.60;;;10.18;;
80975;SDS011;70437;49.466;11.002;2024-03-06T03:46:06;24.80;;;10.30;;
80975;SDS011;70437;49.466;11.002;2024-03-06T03:48:36;24.88;;;11.07;;
80975;SDS011;70437;49.466;11.002;2024-03-06T03:51:09;26.70;;;10.30;;
80975;SDS011;70437;49.466;11.002;2024-03-06T03:53:38;24.33;;;10.45;;
80975;SDS011;70437;49.466;11.002;2024-03-06T03:56:10;25.80;;;10.95;;
80975;SDS011;70437;49.466;11.002;2024-03-06T03:58:39;23.10;;;9.85;;
80975;SDS011;70437;49.466;11.002;2024-03-06T04:01:10;24.83;;;11.50;;
80975;SDS011;70437;49.466;11.002;2024-03-06T04:03:47;22.27;;;10.65;;
80975;SDS011;70437;49.466;11.002;2024-03-06T04:06:19;22.90;;;11.25;;
80975;SDS011;70437;49.466;11.002;2024-03-06T04:08:50;24.67;;;10.50;;
80975;SDS011;70437;49.466;11.002;2024-03-06T04:11:20;27.13;;;11.68;;
80975;SDS011;70437;49.466;11.002;2024-03-06T04:13:49;27.27;;;11.10;;
80975;SDS011;70437;49.466;11.002;2024-03-06T04:16:19;22.83;;;10.85;;
80975;SDS011;70437;49.466;11.002;2024-03-06T04:18:49;27.52;;;11.52;;
80975;SDS011;70437;49.466;11.002;2024-03-06T04:21:20;25.98;;;12.25;;
80975;SDS011;70437;49.466;11.002;2024-03-06T04:26:21;26.30;;;11.05;;
80975;SDS011;70437;49.466;11.002;2024-03-06T04:28:52;30.88;;;11.23;;
80975;SDS011;70437;49.466;11.002;2024-03-06T04:31:22;25.35;;;11.35;;
80975;SDS011;70437;49.466;11.002;2024-03-06T04:33:52;28.15;;;11.70;;
80975;SDS011;70437;49.466;11.002;2024-03-06T04:36:23;26.73;;;11.63;;
80975;SDS011;70437;49.466;11.002;2024-03-06T04:38:53;25.95;;;11.90;;
80975;SDS011;70437;49.466;11.002;2024-03-06T04:41:24;29.35;;;12.20;;
80975;SDS011;70437;49.466;11.002;2024-03-06T04:43:54;32.00;;;12.95;;
80975;SDS011;70437;49.466;11.002;2024-03-06T04:46:26;27.70;;;10.90;;
80975;SDS011;70437;49.466;11.002;2024-03-06T04:48:56;29.20;;;11.95;;
80975;SDS011;70437;49.466;11.002;2024-03-06T04:51:35;29.50;;;12.77;;
80975;SDS011;70437;49.466;11.002;2024-03-06T04:54:04;30.17;;;12.77;;
80975;SDS011;70437;49.466;11.002;2024-03-06T04:56:34;27.85;;;11.85;;
80975;SDS011;70437;49.466;11.002;2024-03-06T04:59:03;27.75;;;10.82;;
80975;SDS011;70437;49.466;11.002;2024-03-06T05:01:34;26.90;;;12.15;;
80975;SDS011;70437;49.466;11.002;2024-03-06T05:04:05;29.20;;;11.82;;
80975;SDS011;70437;49.466;11.002;2024-03-06T05:06:53;28.80;;;11.38;;
80975;SDS011;70437;49.466;11.002;2024-03-06T05:09:42;27.55;;;11.70;;
80975;SDS011;70437;49.466;11.002;2024-03-06T05:12:29;24.83;;;11.13;;
80975;SDS011;70437;49.466;11.002;2024-03-06T05:15:16;44.85;;;15.88;;
80975;SDS011;70437;49.466;11.002;2024-03-06T05:18:04;25.73;;;11.32;;
80975;SDS011;70437;49.466;11.002;2024-03-06T05:20:53;26.58;;;11.43;;
80975;SDS011;70437;49.466;11.002;2024-03-06T05:23:42;28.52;;;12.15;;
80975;SDS011;70437;49.466;11.002;2024-03-06T05:26:28;27.67;;;11.48;;
80975;SDS011;70437;49.466;11.002;2024-03-06T05:29:15;31.45;;;13.57;;
80975;SDS011;70437;49.466;11.002;2024-03-06T05:32:01;32.05;;;13.68;;
80975;SDS011;70437;49.466;11.002;2024-03-06T05:34:48;34.53;;;12.45;;
80975;SDS011;70437;49.466;11.002;2024-03-06T05:37:35;30.20;;;12.45;;
80975;SDS011;70437;49.466;11.002;2024-03-06T05:40:22;31.98;;;13.15;;
80975;SDS011;70437;49.466;11.002;2024-03-06T05:43:11;33.08;;;12.38;;
80975;SDS011;70437;49.466;11.002;2024-03-06T05:45:58;31.45;;;11.65;;
80975;SDS011;70437;49.466;11.002;2024-03-06T05:48:46;29.48;;;11.35;;
80975;SDS011;70437;49.466;11.002;2024-03-06T05:51:35;30.42;;;12.07;;
80975;SDS011;70437;49.466;11.002;2024-03-06T05:54:22;32.95;;;12.05;;
80975;SDS011;70437;49.466;11.002;2024-03-06T05:57:11;34.95;;;13.18;;
80975;SDS011;70437;49.466;11.002;2024-03-06T06:00:04;27.80;;;11.43;;
80975;SDS011;70437;49.466;11.002;2024-03-06T06:02:39;30.50;;;12.40;;
80975;SDS011;70437;49.466;11.002;2024-03-06T06:05:10;38.80;;;13.27;;
80975;SDS011;70437;49.466;11.002;2024-03-06T06:07:45;27.27;;;10.65;;
80975;SDS011;70437;49.466;11.002;2024-03-06T06:10:17;30.90;;;11.70;;
80975;SDS011;70437;49.466;11.002;2024-03-06T06:12:57;31.35;;;12.52;;
80975;SDS011;70437;49.466;11.002;2024-03-06T06:15:28;33.33;;;11.80;;
80975;SDS011;70437;49.466;11.002;2024-03-06T06:17:59;34.42;;;12.70;;
80975;SDS011;70437;49.466;11.002;2024-03-06T06:20:32;33.10;;;12.02;;
80975;SDS011;70437;49.466;11.002;2024-03-06T06:23:03;29.52;;;11.32;;
80975;SDS011;70437;49.466;11.002;2024-03-06T06:25:35;33.75;;;13.05;;
80975;SDS011;70437;49.466;11.002;2024-03-06T06:28:07;31.25;;;12.05;;
80975;SDS011;70437;49.466;11.002;2024-03-06T06:30:38;38.70;;;15.85;;
80975;SDS011;70437;49.466;11.002;2024-03-06T06:33:11;35.05;;;14.43;;
80975;SDS011;70437;49.466;11.002;2024-03-06T06:38:12;28.95;;;11.98;;
80975;SDS011;70437;49.466;11.002;2024-03-06T06:40:42;31.25;;;13.13;;
80975;SDS011;70437;49.466;11.002;2024-03-06T06:43:14;32.88;;;13.30;;
80975;SDS011;70437;49.466;11.002;2024-03-06T06:45:44;30.33;;;11.65;;
80975;SDS011;70437;49.466;11.002;2024-03-06T06:48:14;38.63;;;12.32;;
80975;SDS011;70437;49.466;11.002;2024-03-06T06:50:44;37.13;;;12.60;;
80975;SDS011;70437;49.466;11.002;2024-03-06T06:53:15;35.65;;;12.43;;
80975;SDS011;70437;49.466;11.002;2024-03-06T06:55:44;30.15;;;12.05;;
80975;SDS011;70437;49.466;11.002;2024-03-06T06:58:15;29.65;;;12.63;;
80975;SDS011;70437;49.466;11.002;2024-03-06T07:00:44;31.65;;;12.43;;
80975;SDS011;70437;49.466;11.002;2024-03-06T07:03:15;29.70;;;12.80;;
80975;SDS011;70437;49.466;11.002;2024-03-06T07:05:49;36.30;;;16.52;;
80975;SDS011;70437;49.466;11.002;2024-03-06T07:08:24;41.40;;;15.85;;
80975;SDS011;70437;49.466;11.002;2024-03-06T07:10:54;29.55;;;11.70;;
80975;SDS011;70437;49.466;11.002;2024-03-06T07:13:26;27.73;;;12.38;;
80975;SDS011;70437;49.466;11.002;2024-03-06T07:15:56;25.42;;;10.82;;
80975;SDS011;70437;49.466;11.002;2024-03-06T07:18:27;29.92;;;13.10;;
80975;SDS011;70437;49.466;11.002;2024-03-06T07:21:01;29.00;;;11.50;;
80975;SDS011;70437;49.466;11.002;2024-03-06T07:23:30;26.70;;;12.20;;
80975;SDS011;70437;49.466;11.002;2024-03-06T07:26:01;28.42;;;11.18;;
80975;SDS011;70437;49.466;11.002;2024-03-06T07:28:31;27.95;;;11.65;;
80975;SDS011;70437;49.466;11.002;2024-03-06T07:31:04;26.88;;;11.65;;
80975;SDS011;70437;49.466;11.002;2024-03-06T07:33:34;30.20;;;12.35;;
80975;SDS011;70437;49.466;11.002;2024-03-06T07:36:06;28.73;;;11.60;;
80975;SDS011;70437;49.466;11.002;2024-03-06T07:38:39;32.42;;;11.80;;
80975;SDS011;70437;49.466;11.002;2024-03-06T07:41:09;28.30;;;11.48;;
80975;SDS011;70437;49.466;11.002;2024-03-06T07:43:40;28.77;;;11.88;;
80975;SDS011;70437;49.466;11.002;2024-03-06T07:46:11;28.00;;;10.65;;
80975;SDS011;70437;49.466;11.002;2024-03-06T07:48:41;27.98;;;11.55;;
80975;SDS011;70437;49.466;11.002;2024-03-06T07:51:12;28.10;;;11.13;;
80975;SDS011;70437;49.466;11.002;2024-03-06T07:53:42;34.92;;;11.90;;
80975;SDS011;70437;49.466;11.002;2024-03-06T07:56:13;26.48;;;11.43;;
80975;SDS011;70437;49.466;11.002;2024-03-06T07:58:46;31.08;;;12.48;;
80975;SDS011;70437;49.466;11.002;2024-03-06T08:01:16;32.13;;;11.38;;
80975;SDS011;70437;49.466;11.002;2024-03-06T08:03:48;30.35;;;11.30;;
80975;SDS011;70437;49.466;11.002;2024-03-06T08:06:20;26.30;;;10.68;;
80975;SDS011;70437;49.466;11.002;2024-03-06T08:08:50;28.20;;;10.40;;
80975;SDS011;70437;49.466;11.002;2024-03-06T08:11:19;25.50;;;10.23;;
80975;SDS011;70437;49.466;11.002;2024-03-06T08:16:29;24.95;;;9.50;;
80975;SDS011;70437;49.466;11.002;2024-03-06T08:19:04;34.90;;;10.80;;
80975;SDS011;70437;49.466;11.002;2024-03-06T08:21:38;26.58;;;9.88;;
80975;SDS011;70437;49.466;11.002;2024-03-06T08:24:07;23.63;;;9.38;;
80975;SDS011;70437;49.466;11.002;2024-03-06T08:26:38;25.33;;;10.25;;
80975;SDS011;70437;49.466;11.002;2024-03-06T08:29:11;22.55;;;9.75;;
80975;SDS011;70437;49.466;11.002;2024-03-06T08:31:41;22.85;;;9.38;;
80975;SDS011;70437;49.466;11.002;2024-03-06T08:34:14;27.38;;;8.50;;
80975;SDS011;70437;49.466;11.002;2024-03-06T08:36:44;22.73;;;9.35;;
80975;SDS011;70437;49.466;11.002;2024-03-06T08:39:13;22.25;;;8.75;;
80975;SDS011;70437;49.466;11.002;2024-03-06T08:41:44;23.83;;;9.48;;
80975;SDS011;70437;49.466;11.002;2024-03-06T08:44:15;18.40;;;8.18;;
80975;SDS011;70437;49.466;11.002;2024-03-06T08:46:45;20.02;;;8.25;;
80975;SDS011;70437;49.466;11.002;2024-03-06T08:49:14;20.60;;;7.72;;
80975;SDS011;70437;49.466;11.002;2024-03-06T08:51:48;21.08;;;9.23;;
80975;SDS011;70437;49.466;11.002;2024-03-06T08:54:20;17.80;;;7.70;;
80975;SDS011;70437;49.466;11.002;2024-03-06T08:56:50;21.17;;;8.13;;
80975;SDS011;70437;49.466;11.002;2024-03-06T08:59:26;16.55;;;6.75;;
80975;SDS011;70437;49.466;11.002;2024-03-06T09:01:57;17.27;;;7.20;;
80975;SDS011;70437;49.466;11.002;2024-03-06T09:04:28;19.70;;;8.07;;
80975;SDS011;70437;49.466;11.002;2024-03-06T09:07:01;20.58;;;7.95;;
80975;SDS011;70437;49.466;11.002;2024-03-06T09:09:31;19.30;;;7.43;;
80975;SDS011;70437;49.466;11.002;2024-03-06T09:12:05;17.67;;;6.72;;
80975;SDS011;70437;49.466;11.002;2024-03-06T09:14:39;17.10;;;7.68;;
80975;SDS011;70437;49.466;11.002;2024-03-06T09:17:13;20.98;;;7.75;;
80975;SDS011;70437;49.466;11.002;2024-03-06T09:19:45;19.00;;;7.78;;
80975;SDS011;70437;49.466;11.002;2024-03-06T09:22:35;20.75;;;8.10;;
80975;SDS011;70437;49.466;11.002;2024-03-06T09:25:06;22.73;;;8.30;;
80975;SDS011;70437;49.466;11.002;2024-03-06T09:27:35;21.98;;;7.03;;
80975;SDS011;70437;49.466;11.002;2024-03-06T09:30:08;22.35;;;7.93;;
80975;SDS011;70437;49.466;11.002;2024-03-06T09:32:42;17.98;;;6.75;;
80975;SDS011;70437;49.466;11.002;2024-03-06T09:35:13;19.35;;;7.45;;
80975;SDS011;70437;49.466;11.002;2024-03-06T09:37:48;15.95;;;6.20;;
80975;SDS011;70437;49.466;11.002;2024-03-06T09:40:21;18.38;;;7.20;;
80975;SDS011;70437;49.466;11.002;2024-03-06T09:42:51;15.90;;;6.97;;
80975;SDS011;70437;49.466;11.002;2024-03-06T09:45:25;18.25;;;7.93;;
80975;SDS011;70437;49.466;11.002;2024-03-06T09:47:58;20.00;;;8.13;;
80975;SDS011;70437;49.466;11.002;2024-03-06T09:50:29;19.25;;;7.90;;
80975;SDS011;70437;49.466;11.002;2024-03-06T09:53:05;17.60;;;6.95;;
80975;SDS011;70437;49.466;11.002;2024-03-06T09:55:37;16.17;;;7.05;;
80975;SDS011;70437;49.466;11.002;2024-03-06T09:58:08;18.13;;;7.32;;
80975;SDS011;70437;49.466;11.002;2024-03-06T10:00:39;16.83;;;7.22;;
80975;SDS011;70437;49.466;11.002;2024-03-06T10:03:12;21.90;;;7.85;;
80975;SDS011;70437;49.466;11.002;2024-03-06T10:05:42;18.30;;;7.22;;
80975;SDS011;70437;49.466;11.002;2024-03-06T10:08:16;16.40;;;7.03;;
80975;SDS011;70437;49.466;11.002;2024-03-06T10:10:46;15.60;;;7.55;;
80975;SDS011;70437;49.466;11.002;2024-03-06T10:13:22;14.55;;;6.22;;
80975;SDS011;70437;49.466;11.002;2024-03-06T10:15:57;19.10;;;7.38;;
80975;SDS011;70437;49.466;11.002;2024-03-06T10:18:28;18.73;;;8.23;;
80975;SDS011;70437;49.466;11.002;2024-03-06T10:20:59;19.10;;;7.70;;
80975;SDS011;70437;49.466;11.002;2024-03-06T10:23:30;21.08;;;7.32;;
80975;SDS011;70437;49.466;11.002;2024-03-06T10:26:00;18.15;;;8.13;;
80975;SDS011;70437;49.466;11.002;2024-03-06T10:28:33;18.55;;;7.63;;
80975;SDS011;70437;49.466;11.002;2024-03-06T10:31:07;17.70;;;7.38;;
80975;SDS011;70437;49.466;11.002;2024-03-06T10:33:37;16.35;;;7.25;;
80975;SDS011;70437;49.466;11.002;2024-03-06T10:36:10;17.95;;;7.72;;
80975;SDS011;70437;49.466;11.002;2024-03-06T10:38:40;16.48;;;7.13;;
80975;SDS011;70437;49.466;11.002;2024-03-06T10:41:16;21.42;;;8.27;;
80975;SDS011;70437;49.466;11.002;2024-03-06T10:44:00;20.90;;;7.80;;
80975;SDS011;70437;49.466;11.002;2024-03-06T10:46:32;15.93;;;6.75;;
80975;SDS011;70437;49.466;11.002;2024-03-06T10:49:08;15.93;;;6.30;;
80975;SDS011;70437;49.466;11.002;2024-03-06T10:51:43;17.38;;;6.18;;
80975;SDS011;70437;49.466;11.002;2024-03-06T10:54:17;18.65;;;6.90;;
80975;SDS011;70437;49.466;11.002;2024-03-06T10:56:55;14.88;;;6.45;;
80975;SDS011;70437;49.466;11.002;2024-03-06T10:59:25;17.50;;;6.90;;
80975;SDS011;70437;49.466;11.002;2024-03-06T11:02:01;18.33;;;6.25;;
80975;SDS011;70437;49.466;11.002;2024-03-06T11:05:10;18.95;;;7.80;;
80975;SDS011;70437;49.466;11.002;2024-03-06T11:07:49;16.40;;;7.88;;
80975;SDS011;70437;49.466;11.002;2024-03-06T11:10:38;18.42;;;7.70;;
80975;SDS011;70437;49.466;11.002;2024-03-06T11:13:21;17.90;;;6.90;;
80975;SDS011;70437;49.466;11.002;2024-03-06T11:15:56;17.58;;;7.22;;
80975;SDS011;70437;49.466;11.002;2024-03-06T11:21:29;18.88;;;7.00;;
80975;SDS011;70437;49.466;11.002;2024-03-06T11:24:21;13.48;;;5.68;;
80975;SDS011;70437;49.466;11.002;2024-03-06T11:27:07;16.88;;;7.68;;
80975;SDS011;70437;49.466;11.002;2024-03-06T11:35:35;20.40;;;8.07;;
80975;SDS011;70437;49.466;11.002;2024-03-06T11:38:06;16.60;;;6.95;;
80975;SDS011;70437;49.466;11.002;2024-03-06T11:40:42;16.98;;;7.10;;
80975;SDS011;70437;49.466;11.002;2024-03-06T11:43:22;14.00;;;6.22;;
80975;SDS011;70437;49.466;11.002;2024-03-06T11:45:54;8.77;;;4.03;;
80975;SDS011;70437;49.466;11.002;2024-03-06T11:48:38;13.05;;;5.15;;
80975;SDS011;70437;49.466;11.002;2024-03-06T11:51:16;9.48;;;4.05;;
80975;SDS011;70437;49.466;11.002;2024-03-06T11:53:49;15.85;;;6.47;;
80975;SDS011;70437;49.466;11.002;2024-03-06T11:56:19;12.93;;;5.75;;
80975;SDS011;70437;49.466;11.002;2024-03-06T11:58:51;15.55;;;5.75;;
80975;SDS011;70437;49.466;11.002;2024-03-06T12:01:25;13.10;;;6.32;;
80975;SDS011;70437;49.466;11.002;2024-03-06T12:03:55;12.65;;;4.53;;
80975;SDS011;70437;49.466;11.002;2024-03-06T12:06:33;14.90;;;6.55;;
80975;SDS011;70437;49.466;11.002;2024-03-06T12:09:06;18.35;;;6.35;;
80975;SDS011;70437;49.466;11.002;2024-03-06T12:14:18;15.57;;;5.63;;
80975;SDS011;70437;49.466;11.002;2024-03-06T12:16:54;17.50;;;6.78;;
80975;SDS011;70437;49.466;11.002;2024-03-06T12:19:27;14.07;;;6.03;;
80975;SDS011;70437;49.466;11.002;2024-03-06T12:22:04;21.50;;;7.20;;
80975;SDS011;70437;49.466;11.002;2024-03-06T12:24:44;20.52;;;7.65;;
80975;SDS011;70437;49.466;11.002;2024-03-06T12:27:21;18.40;;;7.05;;
80975;SDS011;70437;49.466;11.002;2024-03-06T12:29:52;19.23;;;7.25;;
80975;SDS011;70437;49.466;11.002;2024-03-06T12:32:24;13.65;;;5.72;;
80975;SDS011;70437;49.466;11.002;2024-03-06T12:34:59;14.15;;;6.25;;
80975;SDS011;70437;49.466;11.002;2024-03-06T12:37:31;12.68;;;6.25;;
80975;SDS011;70437;49.466;11.002;2024-03-06T12:42:33;14.73;;;6.07;;
80975;SDS011;70437;49.466;11.002;2024-03-06T12:45:03;15.23;;;6.35;;
80975;SDS011;70437;49.466;11.002;2024-03-06T12:47:35;13.35;;;5.82;;
80975;SDS011;70437;49.466;11.002;2024-03-06T12:50:08;17.05;;;5.95;;
80975;SDS011;70437;49.466;11.002;2024-03-06T12:52:42;15.23;;;6.05;;
80975;SDS011;70437;49.466;11.002;2024-03-06T12:55:13;14.77;;;6.32;;
80975;SDS011;70437;49.466;11.002;2024-03-06T12:57:44;12.88;;;5.70;;
80975;SDS011;70437;49.466;11.002;2024-03-06T13:00:14;16.00;;;6.38;;
80975;SDS011;70437;49.466;11.002;2024-03-06T13:02:44;24.00;;;10.57;;
80975;SDS011;70437;49.466;11.002;2024-03-06T13:07:52;16.38;;;5.97;;
80975;SDS011;70437;49.466;11.002;2024-03-06T13:10:23;16.15;;;6.53;;
80975;SDS011;70437;49.466;11.002;2024-03-06T13:12:53;15.70;;;6.40;;
80975;SDS011;70437;49.466;11.002;2024-03-06T13:15:28;12.48;;;5.95;;
80975;SDS011;70437;49.466;11.002;2024-03-06T13:17:58;14.73;;;5.65;;
80975;SDS011;70437;49.466;11.002;2024-03-06T13:20:33;14.52;;;6.20;;
80975;SDS011;70437;49.466;11.002;2024-03-06T13:23:06;14.40;;;6.45;;
80975;SDS011;70437;49.466;11.002;2024-03-06T13:25:35;15.43;;;6.53;;
80975;SDS011;70437;49.466;11.002;2024-03-06T13:28:04;18.73;;;6.60;;
80975;SDS011;70437;49.466;11.002;2024-03-06T13:30:36;16.63;;;6.15;;
80975;SDS011;70437;49.466;11.002;2024-03-06T13:33:10;13.52;;;6.18;;
80975;SDS011;70437;49.466;11.002;2024-03-06T13:35:40;13.35;;;6.20;;
80975;SDS011;70437;49.466;11.002;2024-03-06T13:38:11;15.15;;;6.68;;
80975;SDS011;70437;49.466;11.002;2024-03-06T13:40:43;20.88;;;9.25;;
80975;SDS011;70437;49.466;11.002;2024-03-06T13:43:14;15.43;;;7.00;;
80975;SDS011;70437;49.466;11.002;2024-03-06T13:45:52;17.00;;;7.07;;
80975;SDS011;70437;49.466;11.002;2024-03-06T13:48:21;14.20;;;6.63;;
80975;SDS011;70437;49.466;11.002;2024-03-06T13:50:58;20.02;;;5.93;;
80975;SDS011;70437;49.466;11.002;2024-03-06T13:53:30;27.85;;;10.73;;
80975;SDS011;70437;49.466;11.002;2024-03-06T13:56:07;16.27;;;7.32;;
80975;SDS011;70437;49.466;11.002;2024-03-06T13:58:39;17.63;;;7.10;;
80975;SDS011;70437;49.466;11.002;2024-03-06T14:01:10;18.10;;;8.02;;
80975;SDS011;70437;49.466;11.002;2024-03-06T14:03:43;11.98;;;5.88;;
80975;SDS011;70437;49.466;11.002;2024-03-06T14:06:12;15.40;;;6.20;;
80975;SDS011;70437;49.466;11.002;2024-03-06T14:08:43;22.77;;;11.27;;
80975;SDS011;70437;49.466;11.002;2024-03-06T14:11:16;23.05;;;11.38;;
80975;SDS011;70437;49.466;11.002;2024-03-06T14:13:48;14.75;;;6.35;;
80975;SDS011;70437;49.466;11.002;2024-03-06T14:16:21;14.45;;;6.40;;
80975;SDS011;70437;49.466;11.002;2024-03-06T14:18:53;16.98;;;6.53;;
80975;SDS011;70437;49.466;11.002;2024-03-06T14:21:26;16.50;;;7.10;;
80975;SDS011;70437;49.466;11.002;2024-03-06T14:23:59;17.85;;;6.93;;
80975;SDS011;70437;49.466;11.002;2024-03-06T14:26:31;14.75;;;5.88;;
80975;SDS011;70437;49.466;11.002;2024-03-06T14:29:01;13.13;;;5.95;;
80975;SDS011;70437;49.466;11.002;2024-03-06T14:31:34;16.50;;;6.85;;
80975;SDS011;70437;49.466;11.002;2024-03-06T14:34:04;13.82;;;6.68;;
80975;SDS011;70437;49.466;11.002;2024-03-06T14:36:34;17.50;;;7.35;;
80975;SDS011;70437;49.466;11.002;2024-03-06T14:39:06;15.35;;;6.80;;
80975;SDS011;70437;49.466;11.002;2024-03-06T14:41:38;15.75;;;7.30;;
80975;SDS011;70437;49.466;11.002;2024-03-06T14:44:10;14.95;;;6.20;;
80975;SDS011;70437;49.466;11.002;2024-03-06T14:46:41;16.77;;;7.47;;
80975;SDS011;70437;49.466;11.002;2024-03-06T14:49:11;15.88;;;6.57;;
80975;SDS011;70437;49.466;11.002;2024-03-06T14:54:17;21.45;;;6.65;;
80975;SDS011;70437;49.466;11.002;2024-03-06T14:57:20;16.80;;;6.25;;
80975;SDS011;70437;49.466;11.002;2024-03-06T14:59:51;16.23;;;7.05;;
80975;SDS011;70437;49.466;11.002;2024-03-06T15:02:25;14.95;;;6.22;;
80975;SDS011;70437;49.466;11.002;2024-03-06T15:04:55;17.38;;;7.85;;
80975;SDS011;70437;49.466;11.002;2024-03-06T15:07:25;15.70;;;6.28;;
80975;SDS011;70437;49.466;11.002;2024-03-06T15:09:58;16.50;;;6.78;;
80975;SDS011;70437;49.466;11.002;2024-03-06T15:12:31;14.85;;;6.53;;
80975;SDS011;70437;49.466;11.002;2024-03-06T15:15:05;18.75;;;6.38;;
80975;SDS011;70437;49.466;11.002;2024-03-06T15:17:36;17.20;;;6.55;;
80975;SDS011;70437;49.466;11.002;2024-03-06T15:20:07;13.00;;;6.13;;
80975;SDS011;70437;49.466;11.002;2024-03-06T15:22:40;16.63;;;7.25;;